LERS/REU METAR and TAF weather

Enter ICAO airport designator
Station Type Date Time Source
LERS METAR 2021/10/20 06:00 UTC NOAA

LERS 200600Z 20005KT 160V240 9999 SCT020 BKN045 20/16 Q1023


Station Type Date Time Source
LERS Decoded METAR 2021/10/20 06:00 UTC NOAA

Reus / Aeropuerto, Spain (LERS) 41-09N 001-10E 76M
Oct 20, 2021 - 02:00 AM EDT / 2021.10.20 0600 UTC
Wind: from the SSW (200 degrees) at 6 MPH (5 KT) (direction variable):0
Visibility: greater than 7 mile(s):0
Sky conditions: mostly cloudy
Temperature: 68 F (20 C)
Dew Point: 60 F (16 C)
Relative Humidity: 77%
Pressure (altimeter): 30.21 in. Hg (1023 hPa)
ob: LERS 200600Z 20005KT 160V240 9999 SCT020 BKN045 20/16 Q1023
cycle: 6

Station Type Date Time Source
LERS TAF 2021/10/20 03:27 UTC NOAA

TAF LERS 200200Z 2003/2103 VRB03KT 9999 BKN020 TX25/2012Z TN16/2006Z PROB40
TEMPO 2003/2006 BKN014
BECMG 2010/2012 20010KT
BECMG 2021/2023 VRB03KT

Example: see airport list